Hiyodori — JD2366 — position and weather

sailwx.info

Track history (hours):
 
Tides and Currents Weather Stations Pressure Air Temp Water Temp Dewpoint Dewpoint Depression Visibility Wind Speed Wind Dir Waves Ship Positions

Hiyodori

Last reported at 2015-Apr-19 17:33 UTC. Time now 2015-Apr-19 17:42 UTC.
Position N 34°38' E 135°19'.

Length 88 m; draft 3.6 m.

Type: Cargo ship. MMSI: 431000132.

Date/timePositionNaut miles runAvg speedWind from/ knotsBaromVisibWave heightAir tempDewpointWater temp
2015-Apr-19 17:33N 34°38' E 135°19'0 0.0
2015-Apr-19 16:33N 34°38' E 135°19'1 1.2
2015-Apr-19 15:33N 34°37' E 135°18'1212.0
2015-Apr-19 14:33N 34°28' E 135°09'1312.7
2015-Apr-19 13:33N 34°18' E 134°60'1413.7
2015-Apr-19 12:33N 34°04' E 135°01'17810.4
2015-Apr-18 19:26N 34°30' E 138°34'5711.7
2015-Apr-18 14:33N 35°01' E 139°32'1211.6
2015-Apr-18 13:34N 35°09' E 139°43'1110.7
2015-Apr-18 12:34N 35°19' E 139°43'5 4.9
2015-Apr-18 11:33N 35°24' E 139°41'0 0.0
2015-Apr-18 10:34N 35°24' E 139°41'0 0.0
2015-Apr-18 09:34N 35°24' E 139°41'0 0.0
2015-Apr-18 08:33N 35°24' E 139°41'0 0.0
2015-Apr-18 07:33N 35°24' E 139°41'1 1.0
2015-Apr-18 06:33N 35°23' E 139°42'2 1.7
2015-Apr-18 05:28N 35°22' E 139°44'0 0.0
2015-Apr-18 04:28N 35°22' E 139°44'7 7.5
2015-Apr-18 03:33N 35°16' E 139°47'1211.6
2015-Apr-18 02:33N 35°05' E 139°41'240 5.2
2015-Apr-16 04:18N 34°02' E 134°60'912.2
2015-Apr-16 03:33N 34°11' E 134°59'1312.7
2015-Apr-16 02:33N 34°24' E 135°03'1212.4
2015-Apr-16 01:33N 34°33' E 135°14'9 9.1
2015-Apr-16 00:33N 34°41' E 135°17'0 0.0
2015-Apr-15 23:33N 34°41' E 135°17'0 0.0
2015-Apr-15 22:33N 34°41' E 135°17'0 0.0
2015-Apr-15 21:33N 34°41' E 135°17'0 0.0
2015-Apr-15 20:33N 34°41' E 135°17'0 0.0
2015-Apr-15 19:33N 34°41' E 135°17'0 0.0
2015-Apr-15 18:33N 34°41' E 135°17'0 0.0
2015-Apr-15 17:33N 34°41' E 135°17'0 0.0
2015-Apr-15 16:33N 34°41' E 135°17'0 0.0
2015-Apr-15 15:33N 34°41' E 135°17'2 2.0
2015-Apr-15 14:33N 34°40' E 135°19'1313.0
2015-Apr-15 13:32N 34°28' E 135°10'1412.7
2015-Apr-15 12:28N 34°18' E 135°00'1212.7
2015-Apr-15 11:33N 34°06' E 135°01'223 9.7
2015-Apr-14 12:30N 34°58' E 139°24'1314.1
2015-Apr-14 11:33N 35°05' E 139°38'1312.6
2015-Apr-14 10:33N 35°16' E 139°46'1111.5
2015-Apr-14 09:33N 35°28' E 139°47'8 8.3
2015-Apr-14 08:33N 35°36' E 139°46'2 1.9
2015-Apr-14 07:33N 35°35' E 139°48'4 3.6
2015-Apr-14 06:34N 35°34' E 139°53'0 0.0
2015-Apr-14 05:33N 35°34' E 139°53'0 0.0
2015-Apr-14 04:33N 35°34' E 139°53'0 0.0
2015-Apr-14 03:33N 35°34' E 139°53'0 0.0
2015-Apr-14 02:34N 35°34' E 139°53'0 0.0
2015-Apr-14 01:33N 35°34' E 139°53'0 0.0
2015-Apr-14 00:33N 35°34' E 139°53'0 0.0
2015-Apr-13 23:33N 35°34' E 139°53'0 0.0
2015-Apr-13 22:33N 35°34' E 139°53'0 0.0
2015-Apr-13 21:33N 35°34' E 139°53'0 0.0
2015-Apr-13 20:33N 35°34' E 139°53'0 0.0
2015-Apr-13 19:33N 35°34' E 139°53'0 0.0
2015-Apr-13 18:33N 35°34' E 139°53'0 0.0
2015-Apr-13 17:33N 35°34' E 139°53'0 0.0
2015-Apr-13 16:33N 35°34' E 139°53'0 0.0
2015-Apr-13 15:33N 35°34' E 139°53'0 0.0
2015-Apr-13 14:34N 35°34' E 139°53'0 0.0
2015-Apr-13 13:33N 35°34' E 139°53'0 0.0
2015-Apr-13 12:33N 35°34' E 139°53'2 1.6
2015-Apr-13 11:34N 35°33' E 139°52'1010.3
2015-Apr-13 10:33N 35°27' E 139°42'1 0.8
2015-Apr-13 09:33N 35°27' E 139°42'1 1.4
2015-Apr-13 08:34N 35°25' E 139°42'1 1.4
2015-Apr-13 07:34N 35°24' E 139°41'0 0.0
2015-Apr-13 06:34N 35°24' E 139°41'0 0.0
2015-Apr-13 05:34N 35°24' E 139°41'0 0.0
2015-Apr-13 04:33N 35°24' E 139°41'2 1.7
2015-Apr-13 03:33N 35°24' E 139°43'1 1.4
2015-Apr-13 02:33N 35°24' E 139°45'0 0.0
2015-Apr-13 01:34N 35°24' E 139°45'0 0.0
2015-Apr-13 00:33N 35°24' E 139°45'0 0.0
2015-Apr-12 23:33N 35°24' E 139°45'0 0.0
2015-Apr-12 22:33N 35°24' E 139°45'0 0.0
2015-Apr-12 21:34N 35°24' E 139°45'0 0.0
2015-Apr-12 20:33N 35°24' E 139°45'0 0.0
2015-Apr-12 19:33N 35°24' E 139°45'0 0.0
2015-Apr-12 18:33N 35°24' E 139°45'0 0.0
2015-Apr-12 17:34N 35°24' E 139°45'0 0.0
2015-Apr-12 16:33N 35°24' E 139°45'0 0.0
2015-Apr-12 15:33N 35°24' E 139°45'0 0.0
2015-Apr-12 14:33N 35°24' E 139°45'0 0.0
2015-Apr-12 13:33N 35°24' E 139°45'0 0.0
2015-Apr-12 12:34N 35°24' E 139°45'0 0.1
2015-Apr-12 11:33N 35°24' E 139°45'0 0.0
2015-Apr-12 10:33N 35°24' E 139°45'0 0.0
2015-Apr-12 09:34N 35°24' E 139°45'0 0.0
2015-Apr-12 08:33N 35°24' E 139°45'0 0.0
2015-Apr-12 07:34N 35°24' E 139°45'0 0.0
2015-Apr-12 06:33N 35°24' E 139°45'0 0.1
2015-Apr-12 05:33N 35°24' E 139°45'3 3.2
2015-Apr-12 04:33N 35°24' E 139°41'4 4.4
2015-Apr-12 03:33N 35°20' E 139°43'10 9.5
2015-Apr-12 02:33N 35°10' E 139°46'1010.0
2015-Apr-12 01:33N 35°03' E 139°38'237 6.4
2015-Apr-10 12:32N 34°04' E 134°60'1212.5
2015-Apr-10 11:33N 34°16' E 134°59'1111.6
2015-Apr-10 10:33N 34°26' E 135°05'1312.6
2015-Apr-10 09:33N 34°35' E 135°16'6 6.1
2015-Apr-10 08:34N 34°41' E 135°17'0 0.0
2015-Apr-10 07:34N 34°41' E 135°17'0 0.0
2015-Apr-10 06:33N 34°41' E 135°17'0 0.0
2015-Apr-10 05:33N 34°41' E 135°17'4 3.9
2015-Apr-10 04:33N 34°41' E 135°12'0 0.0
2015-Apr-10 03:33N 34°41' E 135°12'0 0.0
2015-Apr-10 02:33N 34°41' E 135°12'0 0.0
2015-Apr-10 01:33N 34°41' E 135°12'0 0.0
2015-Apr-10 00:33N 34°41' E 135°12'0 0.0
2015-Apr-09 23:33N 34°41' E 135°12'0 0.0
2015-Apr-09 22:33N 34°41' E 135°12'0 0.0
2015-Apr-09 21:33N 34°41' E 135°12'0 0.0
2015-Apr-09 20:34N 34°41' E 135°12'0 0.0
2015-Apr-09 19:33N 34°41' E 135°12'0 0.0
2015-Apr-09 18:33N 34°41' E 135°12'  
Track history (hours):
 
Tides and Currents Weather Stations Pressure Air Temp Water Temp Dewpoint Dewpoint Depression Visibility Wind Speed Wind Dir Waves Ship Positions

Hiyodori

Last reported at 2015-Apr-19 17:33 UTC. Time now 2015-Apr-19 17:42 UTC.
Position N 34°38' E 135°19'.

Length 88 m; draft 3.6 m.

Type: Cargo ship. MMSI: 431000132.

Date/timePositionNaut miles runAvg speedWind from/ knotsBaromVisibWave heightAir tempDewpointWater temp
2015-Apr-19 17:33N 34°38' E 135°19'0 0.0
2015-Apr-19 16:33N 34°38' E 135°19'1 1.2
2015-Apr-19 15:33N 34°37' E 135°18'1212.0
2015-Apr-19 14:33N 34°28' E 135°09'1312.7
2015-Apr-19 13:33N 34°18' E 134°60'1413.7
2015-Apr-19 12:33N 34°04' E 135°01'17810.4
2015-Apr-18 19:26N 34°30' E 138°34'5711.7
2015-Apr-18 14:33N 35°01' E 139°32'1211.6
2015-Apr-18 13:34N 35°09' E 139°43'1110.7
2015-Apr-18 12:34N 35°19' E 139°43'5 4.9
2015-Apr-18 11:33N 35°24' E 139°41'0 0.0
2015-Apr-18 10:34N 35°24' E 139°41'0 0.0
2015-Apr-18 09:34N 35°24' E 139°41'0 0.0
2015-Apr-18 08:33N 35°24' E 139°41'0 0.0
2015-Apr-18 07:33N 35°24' E 139°41'1 1.0
2015-Apr-18 06:33N 35°23' E 139°42'2 1.7
2015-Apr-18 05:28N 35°22' E 139°44'0 0.0
2015-Apr-18 04:28N 35°22' E 139°44'7 7.5
2015-Apr-18 03:33N 35°16' E 139°47'1211.6
2015-Apr-18 02:33N 35°05' E 139°41'240 5.2
2015-Apr-16 04:18N 34°02' E 134°60'912.2
2015-Apr-16 03:33N 34°11' E 134°59'1312.7
2015-Apr-16 02:33N 34°24' E 135°03'1212.4
2015-Apr-16 01:33N 34°33' E 135°14'9 9.1
2015-Apr-16 00:33N 34°41' E 135°17'0 0.0
2015-Apr-15 23:33N 34°41' E 135°17'0 0.0
2015-Apr-15 22:33N 34°41' E 135°17'0 0.0
2015-Apr-15 21:33N 34°41' E 135°17'0 0.0
2015-Apr-15 20:33N 34°41' E 135°17'0 0.0
2015-Apr-15 19:33N 34°41' E 135°17'0 0.0
2015-Apr-15 18:33N 34°41' E 135°17'0 0.0
2015-Apr-15 17:33N 34°41' E 135°17'0 0.0
2015-Apr-15 16:33N 34°41' E 135°17'0 0.0
2015-Apr-15 15:33N 34°41' E 135°17'2 2.0
2015-Apr-15 14:33N 34°40' E 135°19'1313.0
2015-Apr-15 13:32N 34°28' E 135°10'1412.7
2015-Apr-15 12:28N 34°18' E 135°00'1212.7
2015-Apr-15 11:33N 34°06' E 135°01'223 9.7
2015-Apr-14 12:30N 34°58' E 139°24'1314.1
2015-Apr-14 11:33N 35°05' E 139°38'1312.6
2015-Apr-14 10:33N 35°16' E 139°46'1111.5
2015-Apr-14 09:33N 35°28' E 139°47'8 8.3
2015-Apr-14 08:33N 35°36' E 139°46'2 1.9
2015-Apr-14 07:33N 35°35' E 139°48'4 3.6
2015-Apr-14 06:34N 35°34' E 139°53'0 0.0
2015-Apr-14 05:33N 35°34' E 139°53'0 0.0
2015-Apr-14 04:33N 35°34' E 139°53'0 0.0
2015-Apr-14 03:33N 35°34' E 139°53'0 0.0
2015-Apr-14 02:34N 35°34' E 139°53'0 0.0
2015-Apr-14 01:33N 35°34' E 139°53'0 0.0
2015-Apr-14 00:33N 35°34' E 139°53'0 0.0
2015-Apr-13 23:33N 35°34' E 139°53'0 0.0
2015-Apr-13 22:33N 35°34' E 139°53'0 0.0
2015-Apr-13 21:33N 35°34' E 139°53'0 0.0
2015-Apr-13 20:33N 35°34' E 139°53'0 0.0
2015-Apr-13 19:33N 35°34' E 139°53'0 0.0
2015-Apr-13 18:33N 35°34' E 139°53'0 0.0
2015-Apr-13 17:33N 35°34' E 139°53'0 0.0
2015-Apr-13 16:33N 35°34' E 139°53'0 0.0
2015-Apr-13 15:33N 35°34' E 139°53'0 0.0
2015-Apr-13 14:34N 35°34' E 139°53'0 0.0
2015-Apr-13 13:33N 35°34' E 139°53'0 0.0
2015-Apr-13 12:33N 35°34' E 139°53'2 1.6
2015-Apr-13 11:34N 35°33' E 139°52'1010.3
2015-Apr-13 10:33N 35°27' E 139°42'1 0.8
2015-Apr-13 09:33N 35°27' E 139°42'1 1.4
2015-Apr-13 08:34N 35°25' E 139°42'1 1.4
2015-Apr-13 07:34N 35°24' E 139°41'0 0.0
2015-Apr-13 06:34N 35°24' E 139°41'0 0.0
2015-Apr-13 05:34N 35°24' E 139°41'0 0.0
2015-Apr-13 04:33N 35°24' E 139°41'2 1.7
2015-Apr-13 03:33N 35°24' E 139°43'1 1.4
2015-Apr-13 02:33N 35°24' E 139°45'0 0.0
2015-Apr-13 01:34N 35°24' E 139°45'0 0.0
2015-Apr-13 00:33N 35°24' E 139°45'0 0.0
2015-Apr-12 23:33N 35°24' E 139°45'0 0.0
2015-Apr-12 22:33N 35°24' E 139°45'0 0.0
2015-Apr-12 21:34N 35°24' E 139°45'0 0.0
2015-Apr-12 20:33N 35°24' E 139°45'0 0.0
2015-Apr-12 19:33N 35°24' E 139°45'0 0.0
2015-Apr-12 18:33N 35°24' E 139°45'0 0.0
2015-Apr-12 17:34N 35°24' E 139°45'0 0.0
2015-Apr-12 16:33N 35°24' E 139°45'0 0.0
2015-Apr-12 15:33N 35°24' E 139°45'0 0.0
2015-Apr-12 14:33N 35°24' E 139°45'0 0.0
2015-Apr-12 13:33N 35°24' E 139°45'0 0.0
2015-Apr-12 12:34N 35°24' E 139°45'0 0.1
2015-Apr-12 11:33N 35°24' E 139°45'0 0.0
2015-Apr-12 10:33N 35°24' E 139°45'0 0.0
2015-Apr-12 09:34N 35°24' E 139°45'0 0.0
2015-Apr-12 08:33N 35°24' E 139°45'0 0.0
2015-Apr-12 07:34N 35°24' E 139°45'0 0.0
2015-Apr-12 06:33N 35°24' E 139°45'0 0.1
2015-Apr-12 05:33N 35°24' E 139°45'3 3.2
2015-Apr-12 04:33N 35°24' E 139°41'4 4.4
2015-Apr-12 03:33N 35°20' E 139°43'10 9.5
2015-Apr-12 02:33N 35°10' E 139°46'1010.0
2015-Apr-12 01:33N 35°03' E 139°38'237 6.4
2015-Apr-10 12:32N 34°04' E 134°60'1212.5
2015-Apr-10 11:33N 34°16' E 134°59'1111.6
2015-Apr-10 10:33N 34°26' E 135°05'1312.6
2015-Apr-10 09:33N 34°35' E 135°16'6 6.1
2015-Apr-10 08:34N 34°41' E 135°17'0 0.0
2015-Apr-10 07:34N 34°41' E 135°17'0 0.0
2015-Apr-10 06:33N 34°41' E 135°17'0 0.0
2015-Apr-10 05:33N 34°41' E 135°17'4 3.9
2015-Apr-10 04:33N 34°41' E 135°12'0 0.0
2015-Apr-10 03:33N 34°41' E 135°12'0 0.0
2015-Apr-10 02:33N 34°41' E 135°12'0 0.0
2015-Apr-10 01:33N 34°41' E 135°12'0 0.0
2015-Apr-10 00:33N 34°41' E 135°12'0 0.0
2015-Apr-09 23:33N 34°41' E 135°12'0 0.0
2015-Apr-09 22:33N 34°41' E 135°12'0 0.0
2015-Apr-09 21:33N 34°41' E 135°12'0 0.0
2015-Apr-09 20:34N 34°41' E 135°12'0 0.0
2015-Apr-09 19:33N 34°41' E 135°12'0 0.0
2015-Apr-09 18:33N 34°41' E 135°12'  

Dump ship's entire track history